Time;durP1;ratioP1;P1;durP2;ratioP2;P2;SDS_P1;SDS_P2;PMS_P1;PMS_P2;Temp;Humidity;BMP_temperature;BMP_pressure;BME280_temperature;BME280_humidity;BME280_pressure;Samples;Min_cycle;Max_cycle;Signal;HPM_P1;HPM_P2
2024/01/14 00:00:10;;;;;;;11.82;1.20;;;3.20;99.90;;;;;;4974887;28;20416;-34
2024/01/14 00:02:38;;;;;;;8.38;1.00;;;3.30;99.90;;;;;;4979227;28;20051;-34
2024/01/14 00:05:06;;;;;;;13.57;1.17;;;3.30;99.90;;;;;;4954418;28;20433;-34
2024/01/14 00:07:31;;;;;;;9.00;1.48;;;3.40;99.90;;;;;;4983171;28;20463;-34
2024/01/14 00:09:58;;;;;;;12.20;1.48;;;3.50;99.90;;;;;;4982213;28;20046;-34
2024/01/14 00:12:25;;;;;;;7.72;1.35;;;3.50;99.90;;;;;;4981736;28;20240;-34
2024/01/14 00:14:52;;;;;;;11.68;1.40;;;3.60;99.90;;;;;;4964576;28;20137;-34
2024/01/14 00:17:17;;;;;;;10.68;1.88;;;3.70;99.90;;;;;;4974348;28;20611;-34
2024/01/14 00:19:43;;;;;;;10.25;1.52;;;3.70;99.90;;;;;;4980399;28;20061;-34
2024/01/14 00:22:09;;;;;;;10.32;1.05;;;3.70;99.90;;;;;;4982701;28;20440;-34
2024/01/14 00:24:35;;;;;;;7.40;1.00;;;3.70;99.90;;;;;;4983687;28;20058;-34
2024/01/14 00:27:00;;;;;;;9.18;1.00;;;3.70;99.90;;;;;;4979399;28;20054;-35
2024/01/14 00:29:26;;;;;;;9.63;1.13;;;3.70;99.90;;;;;;4981416;28;20057;-34
2024/01/14 00:31:52;;;;;;;11.10;1.65;;;3.60;99.90;;;;;;4986795;28;20097;-34
2024/01/14 00:34:18;;;;;;;13.52;1.63;;;3.60;99.90;;;;;;4981694;28;20050;-34
2024/01/14 00:36:43;;;;;;;13.80;1.40;;;3.60;99.90;;;;;;4982707;28;20070;-34
2024/01/14 00:39:10;;;;;;;12.02;1.52;;;3.60;99.90;;;;;;4981691;28;20046;-34
2024/01/14 00:41:35;;;;;;;9.40;1.00;;;3.60;99.90;;;;;;4981357;28;20061;-34
2024/01/14 00:44:02;;;;;;;11.73;1.40;;;3.60;99.90;;;;;;4981858;28;20054;-34
2024/01/14 00:46:28;;;;;;;11.02;1.05;;;3.60;99.90;;;;;;4981653;28;20107;-34
2024/01/14 00:48:53;;;;;;;7.85;1.10;;;3.60;99.90;;;;;;4979126;28;21751;-33
2024/01/14 00:51:19;;;;;;;8.77;1.42;;;3.60;99.90;;;;;;4980017;28;20074;-34
2024/01/14 00:53:45;;;;;;;7.40;0.88;;;3.60;99.90;;;;;;4981300;28;20422;-34
2024/01/14 00:56:12;;;;;;;6.43;1.25;;;3.70;99.90;;;;;;4981002;28;20109;-34
2024/01/14 00:58:38;;;;;;;9.68;1.38;;;3.70;99.90;;;;;;4981784;28;20129;-34
2024/01/14 01:01:03;;;;;;;6.40;0.90;;;3.70;99.90;;;;;;4981372;28;20049;-34
2024/01/14 01:03:29;;;;;;;6.65;0.73;;;3.70;99.90;;;;;;4981452;28;20492;-34
2024/01/14 01:05:55;;;;;;;6.07;0.70;;;3.70;99.90;;;;;;4976981;28;20061;-33
2024/01/14 01:08:21;;;;;;;11.07;0.77;;;3.70;99.90;;;;;;4980629;28;20056;-34
2024/01/14 01:10:48;;;;;;;10.75;1.10;;;3.70;99.90;;;;;;4981875;28;20480;-34
2024/01/14 01:13:15;;;;;;;7.80;1.00;;;3.70;99.90;;;;;;4980031;28;20395;-34
2024/01/14 01:15:40;;;;;;;8.02;0.88;;;3.70;99.90;;;;;;4979411;28;20065;-33
2024/01/14 01:18:06;;;;;;;8.40;1.35;;;3.70;99.90;;;;;;4976599;28;20200;-34
2024/01/14 01:20:32;;;;;;;8.02;0.80;;;3.70;99.90;;;;;;4951157;28;20993;-34
2024/01/14 01:22:58;;;;;;;9.50;1.17;;;3.70;99.90;;;;;;4975987;28;20505;-34
2024/01/14 01:25:23;;;;;;;7.32;1.10;;;3.60;99.90;;;;;;4962053;28;20424;-34
2024/01/14 01:27:49;;;;;;;7.18;1.15;;;3.60;99.90;;;;;;4978309;28;20562;-34
2024/01/14 01:30:15;;;;;;;9.30;1.00;;;3.60;99.90;;;;;;4980538;28;20058;-33
2024/01/14 01:32:40;;;;;;;10.00;1.20;;;3.50;99.90;;;;;;4982220;28;20069;-34
2024/01/14 01:35:06;;;;;;;13.18;1.30;;;3.50;99.90;;;;;;4980841;28;20116;-34
2024/01/14 01:37:32;;;;;;;9.68;1.38;;;3.40;99.90;;;;;;4983882;28;20520;-34
2024/01/14 01:39:58;;;;;;;8.75;1.27;;;3.40;99.90;;;;;;4979375;28;20415;-34
2024/01/14 01:42:23;;;;;;;6.00;1.23;;;3.40;99.90;;;;;;4979178;28;20049;-34
2024/01/14 01:44:49;;;;;;;9.35;0.80;;;3.50;99.90;;;;;;4959688;28;20393;-34
2024/01/14 01:47:16;;;;;;;8.50;1.00;;;3.60;99.90;;;;;;4968911;28;20054;-34
2024/01/14 01:49:43;;;;;;;9.30;0.95;;;3.60;99.90;;;;;;4979643;28;20050;-34
2024/01/14 01:52:10;;;;;;;7.32;0.93;;;3.50;99.90;;;;;;4978015;28;20452;-34
2024/01/14 01:54:38;;;;;;;8.10;1.08;;;3.40;99.90;;;;;;4976645;28;20042;-34
2024/01/14 01:57:05;;;;;;;8.55;1.10;;;3.30;99.90;;;;;;4960976;28;20440;-34
2024/01/14 01:59:31;;;;;;;12.40;1.42;;;3.30;99.90;;;;;;4978477;28;20149;-34
2024/01/14 02:01:58;;;;;;;5.85;1.00;;;3.20;99.90;;;;;;4978142;28;20627;-34
2024/01/14 02:04:25;;;;;;;10.40;1.80;;;3.20;99.90;;;;;;4972690;28;20050;-34
2024/01/14 02:06:51;;;;;;;9.95;1.30;;;3.20;99.90;;;;;;4979506;28;20150;-34
2024/01/14 02:09:17;;;;;;;5.85;1.10;;;3.20;99.90;;;;;;4978595;28;20434;-33
2024/01/14 02:11:43;;;;;;;10.85;1.20;;;3.20;99.90;;;;;;4977902;28;20085;-34
2024/01/14 02:14:09;;;;;;;5.72;1.08;;;3.20;99.90;;;;;;4980547;28;20050;-34
2024/01/14 02:16:35;;;;;;;13.73;1.52;;;3.20;99.90;;;;;;4977407;28;20059;-34
2024/01/14 02:19:04;;;;;;;11.85;1.33;;;3.20;99.90;;;;;;4981100;28;20050;-34
2024/01/14 02:21:40;;;;;;;8.20;0.98;;;3.20;99.90;;;;;;4980274;28;20059;-34
2024/01/14 02:24:11;;;;;;;10.20;1.25;;;3.30;99.90;;;;;;4978818;28;20081;-34
2024/01/14 02:26:37;;;;;;;7.93;1.43;;;3.30;99.90;;;;;;4979685;28;20058;-34
2024/01/14 02:29:06;;;;;;;8.50;1.05;;;3.30;99.90;;;;;;4978519;28;20046;-34
2024/01/14 02:31:32;;;;;;;9.52;1.30;;;3.40;99.90;;;;;;4978061;28;20509;-34
2024/01/14 02:33:58;;;;;;;8.35;1.35;;;3.40;99.90;;;;;;4982137;28;20054;-34
2024/01/14 02:36:24;;;;;;;10.75;1.30;;;3.40;99.90;;;;;;4982109;28;20054;-35
2024/01/14 02:38:50;;;;;;;9.30;1.10;;;3.40;99.90;;;;;;4966305;28;20423;-34
2024/01/14 02:41:15;;;;;;;10.85;1.30;;;3.40;99.90;;;;;;4982618;28;20061;-34
2024/01/14 02:43:43;;;;;;;7.80;1.80;;;3.40;99.90;;;;;;4982392;28;20054;-34
2024/01/14 02:46:09;;;;;;;11.77;1.23;;;3.30;99.90;;;;;;4982580;28;20050;-34
2024/01/14 02:48:35;;;;;;;10.48;1.50;;;3.20;99.90;;;;;;4980278;28;20062;-34
2024/01/14 02:51:00;;;;;;;7.45;1.60;;;3.20;99.90;;;;;;4982145;28;20073;-34
2024/01/14 02:53:26;;;;;;;8.10;0.95;;;3.30;99.90;;;;;;4979965;28;20470;-34
2024/01/14 02:55:52;;;;;;;13.00;1.42;;;3.30;99.90;;;;;;4981298;28;20050;-34
2024/01/14 02:58:17;;;;;;;10.30;1.35;;;3.30;99.90;;;;;;4981617;28;20381;-34
2024/01/14 03:00:43;;;;;;;13.05;1.15;;;3.30;99.90;;;;;;4981434;28;20054;-34
2024/01/14 03:03:09;;;;;;;6.53;1.15;;;3.40;99.90;;;;;;4981065;28;20039;-35
2024/01/14 03:05:35;;;;;;;6.88;0.73;;;3.40;99.90;;;;;;4980184;28;20454;-34
2024/01/14 03:08:00;;;;;;;9.95;1.10;;;3.50;99.90;;;;;;4980522;28;20046;-34
2024/01/14 03:10:26;;;;;;;6.47;0.73;;;3.50;99.90;;;;;;4982076;28;20431;-34
2024/01/14 03:12:52;;;;;;;5.57;0.75;;;3.60;99.90;;;;;;4980986;28;20080;-35
2024/01/14 03:15:17;;;;;;;5.32;0.75;;;3.60;99.90;;;;;;4983164;28;21305;-34
2024/01/14 03:17:43;;;;;;;8.80;1.00;;;3.60;99.90;;;;;;4979390;28;20050;-34
2024/01/14 03:20:09;;;;;;;8.07;0.90;;;3.60;99.90;;;;;;4979639;28;20469;-34
2024/01/14 03:22:35;;;;;;;9.18;1.17;;;3.60;99.90;;;;;;4977267;28;20050;-34
2024/01/14 03:25:00;;;;;;;6.70;0.82;;;3.70;99.90;;;;;;4981775;28;20102;-35
2024/01/14 03:27:26;;;;;;;5.50;0.88;;;3.70;99.90;;;;;;4964403;28;20133;-35
2024/01/14 03:29:52;;;;;;;4.57;0.60;;;3.70;99.90;;;;;;4982444;28;20661;-34
2024/01/14 03:32:17;;;;;;;4.00;0.55;;;3.70;99.90;;;;;;4980133;28;20054;-34
2024/01/14 03:34:43;;;;;;;4.60;0.63;;;3.60;99.90;;;;;;4981721;28;20050;-34
2024/01/14 03:37:09;;;;;;;8.10;0.82;;;3.60;99.90;;;;;;4981288;28;20105;-34
2024/01/14 03:39:34;;;;;;;7.15;0.77;;;3.50;99.90;;;;;;4960157;28;20424;-34
2024/01/14 03:42:00;;;;;;;6.35;0.60;;;3.50;99.90;;;;;;4980241;28;20054;-34
2024/01/14 03:44:26;;;;;;;4.45;0.60;;;3.50;99.90;;;;;;4979614;28;20161;-34
2024/01/14 03:46:51;;;;;;;6.88;0.70;;;3.50;99.90;;;;;;4982793;28;20183;-34
2024/01/14 03:49:17;;;;;;;6.47;0.50;;;3.50;99.90;;;;;;4981566;28;20153;-34
2024/01/14 03:51:43;;;;;;;7.60;0.95;;;3.50;99.90;;;;;;4984084;28;20137;-34
2024/01/14 03:54:08;;;;;;;11.10;0.90;;;3.50;99.90;;;;;;4981535;28;20081;-34
2024/01/14 03:56:34;;;;;;;9.05;0.90;;;3.50;99.90;;;;;;4979904;28;20050;-34
2024/01/14 03:59:00;;;;;;;3.63;0.63;;;3.50;99.90;;;;;;4980215;28;20400;-34
2024/01/14 04:01:26;;;;;;;8.95;1.27;;;3.60;99.90;;;;;;4980541;28;20145;-34
2024/01/14 04:03:51;;;;;;;9.27;1.20;;;3.60;99.90;;;;;;4980502;28;20054;-34
2024/01/14 04:06:23;;;;;;;5.97;0.93;;;3.60;99.90;;;;;;4981025;28;20056;-34
2024/01/14 04:08:49;;;;;;;8.40;0.90;;;3.60;99.90;;;;;;4962859;28;20050;-33
2024/01/14 04:11:14;;;;;;;6.18;0.60;;;3.60;99.90;;;;;;4981115;28;20516;-34
2024/01/14 04:13:40;;;;;;;6.88;0.85;;;3.60;99.90;;;;;;4979556;28;20076;-33
2024/01/14 04:16:07;;;;;;;5.78;0.80;;;3.70;99.90;;;;;;4982378;28;20476;-34
2024/01/14 04:18:35;;;;;;;5.30;0.88;;;3.60;99.90;;;;;;4977049;28;20054;-34
2024/01/14 04:21:01;;;;;;;8.15;1.05;;;3.70;99.90;;;;;;4978015;28;20447;-34
2024/01/14 04:23:27;;;;;;;6.60;1.00;;;3.70;99.90;;;;;;4980421;28;20432;-34
2024/01/14 04:25:53;;;;;;;6.78;0.90;;;3.70;99.90;;;;;;4980575;28;20070;-34
2024/01/14 04:28:18;;;;;;;6.53;0.82;;;3.70;99.90;;;;;;4981183;28;20153;-34
2024/01/14 04:30:44;;;;;;;9.38;1.00;;;3.70;99.90;;;;;;4962232;28;20552;-32
2024/01/14 04:33:11;;;;;;;5.57;0.90;;;3.60;99.90;;;;;;4979047;28;20064;-34
2024/01/14 04:35:36;;;;;;;11.70;1.15;;;3.60;99.90;;;;;;4978529;28;20522;-34
2024/01/14 04:38:02;;;;;;;6.90;0.93;;;3.50;99.90;;;;;;4980783;28;20057;-34
2024/01/14 04:40:28;;;;;;;7.55;1.00;;;3.50;99.90;;;;;;4981287;28;20046;-34
2024/01/14 04:42:54;;;;;;;10.73;1.25;;;3.40;99.90;;;;;;4980128;28;20411;-34
2024/01/14 04:45:19;;;;;;;9.80;1.40;;;3.40;99.90;;;;;;4981818;28;20042;-34
2024/01/14 04:47:46;;;;;;;9.77;1.40;;;3.40;99.90;;;;;;4977885;28;20295;-34
2024/01/14 04:50:12;;;;;;;7.32;1.27;;;3.30;99.90;;;;;;4980138;28;20057;-34
2024/01/14 04:52:37;;;;;;;8.63;1.27;;;3.30;99.90;;;;;;4967191;28;20042;-34
2024/01/14 04:55:04;;;;;;;10.00;1.10;;;3.30;99.90;;;;;;4971086;28;20058;-34
2024/01/14 04:57:29;;;;;;;7.22;1.33;;;3.30;99.90;;;;;;4977230;28;20057;-34
2024/01/14 04:59:55;;;;;;;9.57;1.05;;;3.20;99.90;;;;;;4984282;28;20057;-33
2024/01/14 05:02:21;;;;;;;6.38;0.90;;;3.10;99.90;;;;;;4983789;28;20451;-34
2024/01/14 05:04:46;;;;;;;9.98;1.80;;;3.20;99.90;;;;;;4983254;28;20050;-33
2024/01/14 05:07:12;;;;;;;8.57;1.17;;;3.10;99.90;;;;;;4985446;28;20076;-33
2024/01/14 05:09:38;;;;;;;9.63;1.15;;;3.10;99.90;;;;;;4983159;28;20089;-33
2024/01/14 05:12:04;;;;;;;10.07;1.00;;;3.20;99.90;;;;;;4983534;28;20078;-33
2024/01/14 05:14:29;;;;;;;7.30;1.10;;;3.10;99.90;;;;;;4984008;28;20050;-34
2024/01/14 05:16:55;;;;;;;12.40;0.93;;;3.20;99.90;;;;;;4982063;28;20550;-34
2024/01/14 05:19:21;;;;;;;7.50;1.05;;;3.20;99.90;;;;;;4987057;28;20129;-34
2024/01/14 05:21:46;;;;;;;6.70;0.80;;;3.20;99.90;;;;;;4984188;28;20058;-34
2024/01/14 05:24:12;;;;;;;5.63;1.05;;;3.20;99.90;;;;;;4985487;28;20042;-34
2024/01/14 05:26:41;;;;;;;7.82;0.80;;;3.20;99.90;;;;;;4981650;28;20120;-34
2024/01/14 05:29:07;;;;;;;6.95;0.88;;;3.20;99.90;;;;;;4961537;28;20038;-34
2024/01/14 05:31:32;;;;;;;7.07;0.85;;;3.20;99.90;;;;;;4979072;28;20756;-34
2024/01/14 05:33:58;;;;;;;5.22;0.60;;;3.20;99.90;;;;;;4985231;28;20732;-34
2024/01/14 05:36:24;;;;;;;5.35;0.70;;;3.20;99.90;;;;;;4984722;28;20047;-35
2024/01/14 05:38:49;;;;;;;5.40;0.80;;;3.20;99.90;;;;;;4981136;28;20137;-34
2024/01/14 05:41:15;;;;;;;7.05;0.50;;;3.20;99.90;;;;;;4984845;28;20058;-34
2024/01/14 05:43:41;;;;;;;4.68;0.60;;;3.20;99.90;;;;;;4983287;28;20042;-34
2024/01/14 05:46:07;;;;;;;6.38;1.00;;;3.30;99.90;;;;;;4981609;28;20045;-34
2024/01/14 05:48:33;;;;;;;9.65;2.30;;;3.20;99.90;;;;;;4983032;28;20054;-34
2024/01/14 05:50:59;;;;;;;9.85;0.80;;;3.20;99.90;;;;;;4985822;28;20058;-34
2024/01/14 05:53:24;;;;;;;9.15;0.82;;;3.30;99.90;;;;;;4986129;28;20419;-35
2024/01/14 05:55:50;;;;;;;6.47;0.80;;;3.30;99.90;;;;;;4981660;28;20116;-33
2024/01/14 05:58:16;;;;;;;7.05;0.75;;;3.30;99.90;;;;;;4982579;28;20048;-33
2024/01/14 06:00:41;;;;;;;4.20;0.50;;;3.30;99.90;;;;;;4984883;28;20389;-34
2024/01/14 06:03:07;;;;;;;5.43;0.50;;;3.30;99.90;;;;;;4982318;28;20057;-34
2024/01/14 06:05:33;;;;;;;12.27;0.90;;;3.30;99.90;;;;;;4985979;28;20054;-34
2024/01/14 06:07:58;;;;;;;5.80;0.60;;;3.30;99.90;;;;;;4967345;28;20080;-34
2024/01/14 06:10:25;;;;;;;6.38;0.70;;;3.30;99.90;;;;;;4984505;28;20042;-34
2024/01/14 06:12:51;;;;;;;6.78;1.05;;;3.40;99.90;;;;;;4982638;28;20054;-34
2024/01/14 06:15:16;;;;;;;6.65;0.50;;;3.30;99.90;;;;;;4985526;28;20038;-34
2024/01/14 06:17:42;;;;;;;5.68;1.10;;;3.30;99.90;;;;;;4983517;28;20050;-34
2024/01/14 06:20:09;;;;;;;6.90;0.50;;;3.40;99.90;;;;;;4984189;28;20050;-34
2024/01/14 06:22:35;;;;;;;4.65;0.70;;;3.40;99.90;;;;;;4983150;28;20578;-34
2024/01/14 06:25:00;;;;;;;10.70;0.85;;;3.30;99.90;;;;;;4984429;28;20058;-34
2024/01/14 06:27:26;;;;;;;5.78;0.80;;;3.40;99.90;;;;;;4970088;28;20129;-34
2024/01/14 06:29:52;;;;;;;5.15;0.43;;;3.40;99.90;;;;;;4964095;28;20443;-34
2024/01/14 06:32:18;;;;;;;7.10;0.50;;;3.40;99.90;;;;;;4985021;28;20416;-34
2024/01/14 06:34:44;;;;;;;5.78;0.57;;;3.40;99.90;;;;;;4981266;28;20134;-34
2024/01/14 06:37:10;;;;;;;4.38;0.40;;;3.40;99.90;;;;;;4983429;28;20056;-34
2024/01/14 06:39:35;;;;;;;9.55;1.15;;;3.30;99.90;;;;;;4981559;28;20054;-34
2024/01/14 06:42:01;;;;;;;6.22;0.47;;;3.40;99.90;;;;;;4983172;28;20145;-34
2024/01/14 06:44:27;;;;;;;8.15;0.77;;;3.30;99.90;;;;;;4983086;28;20077;-34
2024/01/14 06:46:52;;;;;;;5.60;0.70;;;3.30;99.90;;;;;;4983161;28;20050;-34
2024/01/14 06:49:18;;;;;;;8.05;1.00;;;3.30;99.90;;;;;;4981979;28;20050;-34
2024/01/14 06:51:44;;;;;;;8.82;0.82;;;3.30;99.90;;;;;;4981229;28;20895;-34
2024/01/14 06:54:10;;;;;;;5.82;0.70;;;3.30;99.90;;;;;;4980894;28;20420;-34
2024/01/14 06:56:43;;;;;;;6.45;0.68;;;3.30;99.90;;;;;;4986303;28;20061;-34
2024/01/14 06:59:21;;;;;;;6.22;0.75;;;3.30;99.90;;;;;;4982851;28;20064;-34
2024/01/14 07:01:47;;;;;;;6.15;0.93;;;3.40;99.90;;;;;;4980097;28;20143;-34
2024/01/14 07:04:14;;;;;;;8.77;0.90;;;3.30;99.90;;;;;;4968428;28;20113;-34
2024/01/14 07:06:40;;;;;;;6.50;0.73;;;3.40;99.90;;;;;;4987945;28;20136;-34
2024/01/14 07:09:10;;;;;;;7.57;0.88;;;3.30;99.90;;;;;;4984746;28;20584;-34
2024/01/14 07:11:36;;;;;;;4.05;0.47;;;3.30;99.90;;;;;;4987846;28;20105;-34
2024/01/14 07:14:02;;;;;;;3.55;0.70;;;3.30;99.90;;;;;;4981115;28;20362;-34
2024/01/14 07:16:29;;;;;;;5.15;0.65;;;3.30;99.90;;;;;;4985193;28;20485;-34
2024/01/14 07:18:55;;;;;;;5.72;0.70;;;3.30;99.90;;;;;;4981981;28;20584;-34
2024/01/14 07:21:22;;;;;;;7.88;0.73;;;3.30;99.90;;;;;;4983118;28;20069;-35
2024/01/14 07:23:49;;;;;;;6.53;0.70;;;3.20;99.90;;;;;;4985680;28;20062;-34
2024/01/14 07:26:17;;;;;;;4.25;0.60;;;3.30;99.90;;;;;;4983698;28;20084;-35
2024/01/14 07:28:43;;;;;;;7.88;1.08;;;3.30;99.90;;;;;;4984619;28;20058;-33
2024/01/14 07:31:10;;;;;;;5.85;0.60;;;3.30;99.90;;;;;;4983507;28;20509;-34
2024/01/14 07:33:36;;;;;;;6.95;0.70;;;3.30;99.90;;;;;;4987368;28;20563;-34
2024/01/14 07:36:02;;;;;;;6.40;0.80;;;3.30;99.90;;;;;;4981250;28;20055;-34
2024/01/14 07:38:27;;;;;;;6.68;0.70;;;3.30;99.90;;;;;;4983466;28;20056;-34
2024/01/14 07:40:53;;;;;;;6.63;0.55;;;3.30;99.90;;;;;;4983813;28;20074;-34
2024/01/14 07:43:19;;;;;;;7.70;0.70;;;3.30;99.90;;;;;;4971238;28;20121;-34
2024/01/14 07:45:44;;;;;;;7.68;0.98;;;3.30;99.90;;;;;;4984218;28;20551;-34
2024/01/14 07:48:10;;;;;;;6.75;1.10;;;3.30;99.90;;;;;;4982893;28;20129;-35
2024/01/14 07:50:36;;;;;;;5.43;1.00;;;3.20;99.90;;;;;;4981188;28;20054;-33
2024/01/14 07:53:02;;;;;;;4.28;0.60;;;3.20;99.90;;;;;;4980355;28;20065;-34
2024/01/14 07:55:27;;;;;;;6.85;0.50;;;3.20;99.90;;;;;;4983758;28;20053;-34
2024/01/14 07:57:53;;;;;;;5.18;0.63;;;3.20;99.90;;;;;;4989062;28;20062;-34
2024/01/14 08:00:19;;;;;;;11.10;1.42;;;3.30;99.90;;;;;;4985218;28;20089;-34
2024/01/14 08:02:45;;;;;;;5.72;1.08;;;3.20;99.90;;;;;;4981608;28;20049;-34
2024/01/14 08:05:11;;;;;;;9.02;1.30;;;3.30;99.90;;;;;;4981393;28;20488;-33
2024/01/14 08:07:36;;;;;;;7.43;1.33;;;3.30;99.90;;;;;;4966754;28;20100;-33
2024/01/14 08:10:02;;;;;;;7.28;1.40;;;3.30;99.90;;;;;;4985171;28;20042;-34
2024/01/14 08:12:28;;;;;;;9.48;1.23;;;3.30;99.90;;;;;;4978674;28;20492;-34
2024/01/14 08:14:54;;;;;;;7.20;0.80;;;3.20;99.90;;;;;;4985217;28;20077;-34
2024/01/14 08:17:20;;;;;;;6.10;1.40;;;3.30;99.90;;;;;;4986281;28;20050;-34
2024/01/14 08:19:48;;;;;;;6.63;2.20;;;3.20;99.90;;;;;;4981983;28;20096;-34
2024/01/14 08:22:17;;;;;;;11.27;2.20;;;3.30;99.90;;;;;;4983791;28;20479;-33
2024/01/14 08:24:43;;;;;;;6.90;1.85;;;3.30;99.90;;;;;;4984121;28;20050;-34
2024/01/14 08:27:09;;;;;;;6.28;1.60;;;3.30;99.90;;;;;;4988553;28;20061;-34
2024/01/14 08:29:35;;;;;;;6.88;1.50;;;3.20;99.90;;;;;;4990490;28;20336;-34
2024/01/14 08:32:00;;;;;;;5.00;1.40;;;3.20;99.90;;;;;;4985191;28;20060;-34
2024/01/14 08:34:26;;;;;;;5.28;1.20;;;3.20;99.90;;;;;;4985837;28;20443;-34
2024/01/14 08:36:52;;;;;;;5.25;1.10;;;3.30;99.90;;;;;;4987459;28;20049;-34
2024/01/14 08:39:17;;;;;;;3.55;0.80;;;3.30;99.90;;;;;;4981711;28;20050;-34
2024/01/14 08:41:44;;;;;;;4.63;0.95;;;3.40;99.90;;;;;;4988577;28;20526;-34
2024/01/14 08:44:10;;;;;;;5.93;1.25;;;3.40;99.90;;;;;;4984256;28;20046;-34
2024/01/14 08:46:40;;;;;;;12.25;4.40;;;3.40;99.90;;;;;;4984859;28;20054;-34
2024/01/14 08:49:07;;;;;;;14.30;5.78;;;3.40;99.90;;;;;;4985488;28;20046;-34
2024/01/14 08:51:32;;;;;;;19.92;6.97;;;3.30;99.90;;;;;;4984702;28;20046;-34
2024/01/14 08:54:00;;;;;;;17.27;7.03;;;3.20;99.90;;;;;;4982249;28;20057;-34
2024/01/14 08:56:28;;;;;;;16.33;7.53;;;3.20;99.90;;;;;;4985826;28;20050;-34
2024/01/14 08:58:55;;;;;;;17.25;7.60;;;3.20;99.90;;;;;;4983174;28;20058;-34
2024/01/14 09:01:21;;;;;;;19.63;8.88;;;3.20;99.90;;;;;;4986432;28;20054;-34
2024/01/14 09:03:46;;;;;;;17.00;8.40;;;3.10;99.90;;;;;;4986321;28;20132;-34
2024/01/14 09:06:12;;;;;;;20.75;9.43;;;3.20;99.90;;;;;;4985052;28;20049;-34
2024/01/14 09:08:38;;;;;;;26.40;12.30;;;3.10;99.90;;;;;;4988230;28;21838;-33
2024/01/14 09:11:03;;;;;;;30.55;14.15;;;3.20;99.90;;;;;;4987175;28;20050;-33
2024/01/14 09:13:29;;;;;;;27.38;13.65;;;3.10;99.90;;;;;;4983282;28;20057;-33
2024/01/14 09:15:55;;;;;;;35.42;15.70;;;3.10;99.90;;;;;;4969256;28;20423;-34
2024/01/14 09:18:21;;;;;;;34.03;14.73;;;3.10;99.90;;;;;;4984337;28;20054;-34
2024/01/14 09:20:46;;;;;;;36.03;16.15;;;3.10;99.90;;;;;;4987580;28;20055;-33
2024/01/14 09:23:12;;;;;;;36.25;16.17;;;3.10;99.90;;;;;;4984170;28;20558;-33
2024/01/14 09:25:38;;;;;;;36.65;17.83;;;3.10;99.90;;;;;;4987194;28;20058;-33
2024/01/14 09:28:04;;;;;;;41.72;18.67;;;3.20;99.90;;;;;;4985081;28;20100;-33
2024/01/14 09:30:29;;;;;;;45.60;21.70;;;3.10;99.90;;;;;;4985386;28;20050;-33
2024/01/14 09:32:55;;;;;;;42.35;20.00;;;3.20;99.90;;;;;;4982123;28;20057;-34
2024/01/14 09:35:21;;;;;;;41.50;20.65;;;3.30;99.90;;;;;;4988170;28;20492;-34
2024/01/14 09:37:47;;;;;;;51.72;22.70;;;3.30;99.90;;;;;;4984700;28;20050;-35
2024/01/14 09:40:14;;;;;;;47.13;21.88;;;3.30;99.90;;;;;;4988429;28;20765;-34
2024/01/14 09:42:43;;;;;;;49.88;21.73;;;3.30;99.90;;;;;;4985239;28;20066;-34
2024/01/14 09:45:08;;;;;;;45.10;20.67;;;3.40;99.90;;;;;;4983238;28;20516;-34
2024/01/14 09:47:35;;;;;;;41.58;21.27;;;3.40;99.90;;;;;;4983672;28;20133;-34
2024/01/14 09:50:01;;;;;;;44.03;21.10;;;3.40;99.90;;;;;;4980421;28;20064;-34
2024/01/14 09:52:30;;;;;;;39.10;20.15;;;3.40;99.90;;;;;;4986615;28;20420;-34
2024/01/14 09:54:57;;;;;;;35.72;18.95;;;3.40;99.90;;;;;;4983803;28;20112;-34
2024/01/14 09:57:24;;;;;;;39.85;19.00;;;3.40;99.90;;;;;;4966615;28;20066;-34
2024/01/14 09:59:50;;;;;;;35.08;18.95;;;3.50;99.90;;;;;;4988852;28;20072;-34
2024/01/14 10:02:16;;;;;;;32.38;17.05;;;3.50;99.90;;;;;;4983242;28;20054;-34
2024/01/14 10:04:42;;;;;;;31.58;16.48;;;3.50;99.90;;;;;;4983522;28;20171;-33
2024/01/14 10:07:09;;;;;;;34.72;17.38;;;3.40;99.90;;;;;;4974919;28;20530;-33
2024/01/14 10:09:36;;;;;;;32.45;16.65;;;3.50;99.90;;;;;;4961143;28;20165;-33
2024/01/14 10:12:02;;;;;;;35.05;18.13;;;3.50;99.90;;;;;;4979028;28;20538;-35
2024/01/14 10:14:28;;;;;;;33.95;17.05;;;3.50;99.90;;;;;;4979265;28;20050;-34
2024/01/14 10:17:00;;;;;;;29.30;15.93;;;3.50;99.90;;;;;;4980717;28;20492;-34
2024/01/14 10:19:26;;;;;;;22.50;13.63;;;3.60;99.90;;;;;;4977548;28;20054;-33
2024/01/14 10:21:53;;;;;;;20.30;11.35;;;3.60;99.90;;;;;;4979378;28;20051;-33
2024/01/14 10:24:21;;;;;;;22.58;12.13;;;3.60;99.90;;;;;;4977831;28;20058;-33
2024/01/14 10:26:51;;;;;;;24.90;13.35;;;3.60;99.90;;;;;;4978705;28;20717;-34
2024/01/14 10:29:17;;;;;;;26.30;14.13;;;3.60;99.90;;;;;;4972925;28;20674;-34
2024/01/14 10:31:43;;;;;;;27.52;13.90;;;3.60;99.90;;;;;;4977545;28;20062;-34
2024/01/14 10:34:09;;;;;;;25.98;13.93;;;3.60;99.90;;;;;;4979221;28;21131;-34
2024/01/14 10:36:36;;;;;;;29.52;15.20;;;3.70;99.90;;;;;;4975653;28;20077;-34
2024/01/14 10:39:03;;;;;;;30.83;16.50;;;3.60;99.90;;;;;;4980205;28;20129;-34
2024/01/14 10:41:29;;;;;;;34.95;18.33;;;3.70;99.90;;;;;;4981427;28;20120;-34
2024/01/14 10:43:55;;;;;;;34.67;17.92;;;3.70;99.90;;;;;;4978465;28;20609;-34
2024/01/14 10:46:23;;;;;;;37.58;19.40;;;3.70;99.90;;;;;;4974538;28;20046;-34
2024/01/14 10:49:05;;;;;;;34.20;18.58;;;3.70;99.90;;;;;;4976384;28;20049;-34
2024/01/14 10:51:34;;;;;;;32.13;17.00;;;3.70;99.90;;;;;;4977043;28;20061;-34
2024/01/14 10:54:18;;;;;;;35.10;17.45;;;3.70;99.90;;;;;;4978202;28;20305;-34
2024/01/14 10:56:50;;;;;;;32.10;17.67;;;3.70;99.90;;;;;;4976026;28;20058;-34
2024/01/14 10:59:21;;;;;;;34.60;18.42;;;3.80;99.90;;;;;;4976355;28;20057;-34
2024/01/14 11:01:53;;;;;;;36.00;18.77;;;3.80;99.90;;;;;;4978394;28;20061;-34
2024/01/14 11:04:21;;;;;;;36.75;20.05;;;3.90;99.90;;;;;;4982880;28;20496;-34
2024/01/14 11:06:47;;;;;;;38.40;20.08;;;3.80;99.90;;;;;;4978730;28;20492;-34
2024/01/14 11:09:13;;;;;;;39.58;21.17;;;3.80;99.90;;;;;;4978313;28;20054;-34
2024/01/14 11:11:47;;;;;;;42.17;21.90;;;3.70;99.90;;;;;;4976911;28;20104;-34
2024/01/14 11:14:36;;;;;;;45.22;21.90;;;3.60;99.90;;;;;;4976505;28;20159;-33
2024/01/14 11:17:12;;;;;;;43.85;24.25;;;3.60;99.90;;;;;;4970817;28;20058;-34
2024/01/14 11:19:40;;;;;;;42.72;21.90;;;3.50;99.90;;;;;;4979216;28;20096;-32
2024/01/14 11:22:18;;;;;;;42.70;20.92;;;3.60;99.90;;;;;;4977864;28;20054;-33
2024/01/14 11:24:43;;;;;;;41.67;21.40;;;3.60;99.90;;;;;;4977031;28;20058;-33
2024/01/14 11:27:09;;;;;;;40.15;20.88;;;3.70;99.90;;;;;;4981640;28;20054;-33
2024/01/14 11:29:36;;;;;;;43.58;21.80;;;3.60;99.90;;;;;;4986214;28;20042;-33
2024/01/14 11:32:09;;;;;;;43.65;22.10;;;3.60;99.90;;;;;;4979440;28;20061;-33
2024/01/14 11:34:47;;;;;;;43.53;21.27;;;3.70;99.90;;;;;;4976210;28;20066;-35
2024/01/14 11:37:32;;;;;;;41.47;21.35;;;3.60;99.90;;;;;;4978537;28;20057;-33
2024/01/14 11:40:07;;;;;;;47.03;22.45;;;3.60;99.90;;;;;;4979684;28;20559;-33
2024/01/14 11:42:37;;;;;;;37.65;20.42;;;3.70;99.90;;;;;;4975739;28;20062;-33
2024/01/14 11:45:04;;;;;;;34.17;18.13;;;3.60;99.90;;;;;;4977668;28;20050;-34
2024/01/14 11:47:36;;;;;;;36.53;18.58;;;3.60;99.90;;;;;;4978686;28;20061;-33
2024/01/14 11:50:06;;;;;;;34.42;17.90;;;3.60;99.90;;;;;;4975910;28;20492;-34
2024/01/14 11:52:35;;;;;;;30.30;16.80;;;3.60;99.90;;;;;;4969852;28;20216;-34
2024/01/14 11:55:05;;;;;;;33.42;17.50;;;3.60;99.90;;;;;;4966967;28;20050;-34
2024/01/14 11:57:32;;;;;;;34.72;18.17;;;3.60;99.90;;;;;;4975268;28;20061;-34
2024/01/14 11:59:58;;;;;;;33.78;17.05;;;3.60;99.90;;;;;;4980324;28;20050;-33
2024/01/14 12:02:24;;;;;;;34.38;16.98;;;3.60;99.90;;;;;;4982684;28;20079;-34
2024/01/14 12:04:51;;;;;;;38.50;18.52;;;3.60;99.90;;;;;;4981198;28;20062;-34
2024/01/14 12:07:21;;;;;;;28.98;16.88;;;3.60;99.90;;;;;;4982457;28;20046;-34
2024/01/14 12:09:56;;;;;;;31.52;17.20;;;3.60;99.90;;;;;;4983351;28;20061;-33
2024/01/14 12:12:24;;;;;;;36.08;18.25;;;3.60;99.90;;;;;;4981493;28;20550;-34
2024/01/14 12:14:50;;;;;;;33.70;17.23;;;3.70;99.90;;;;;;4982337;28;20054;-35
2024/01/14 12:17:16;;;;;;;31.33;15.60;;;3.80;99.90;;;;;;4979748;28;20049;-34
2024/01/14 12:19:42;;;;;;;29.60;16.27;;;3.80;99.90;;;;;;4987882;28;20456;-34
2024/01/14 12:22:09;;;;;;;31.52;16.13;;;3.80;99.90;;;;;;4979940;28;20160;-34
2024/01/14 12:24:35;;;;;;;30.77;15.68;;;3.90;99.90;;;;;;4978463;28;20504;-34
2024/01/14 12:27:00;;;;;;;26.55;13.90;;;3.90;99.90;;;;;;4982464;28;20057;-34
2024/01/14 12:29:30;;;;;;;23.60;13.20;;;3.90;99.90;;;;;;4980687;28;20504;-34
2024/01/14 12:31:58;;;;;;;24.23;12.13;;;3.90;99.90;;;;;;4980889;28;20133;-34
2024/01/14 12:34:23;;;;;;;21.60;10.88;;;4.00;99.90;;;;;;4979527;28;20070;-34
2024/01/14 12:36:49;;;;;;;18.13;9.25;;;4.00;99.90;;;;;;4978334;28;20054;-34
2024/01/14 12:39:16;;;;;;;14.80;6.70;;;4.00;99.90;;;;;;4969883;28;20127;-34
2024/01/14 12:41:41;;;;;;;14.55;6.45;;;4.00;99.90;;;;;;4969053;28;20124;-34
2024/01/14 12:44:07;;;;;;;12.00;5.88;;;4.00;99.90;;;;;;4964996;28;20049;-34
2024/01/14 12:46:33;;;;;;;11.93;5.13;;;3.90;99.90;;;;;;4964955;28;20358;-36